Terminal Aerodrome Forecast
Issued by NWS

Home | Current Version | Previous Version | Text Only | Print | Product List | Glossary On
Versions: 1 2 3 4 5 6 7 8 9 10 11 12
000
FTUS46 KSGX 261100
TAFONT
TAF
KONT 261136Z 2612/2718 VRB05KT P6SM SCT150
     FM261900 25012G18KT P6SM SCT120 BKN200
     FM270400 26007KT P6SM SCT150=

USA.gov is the U.S. government's official web portal to all federal, state and local government web resources and services.